createdAt,value
2023-02-26T00:01:58.260Z,-2.70
2023-02-26T00:04:25.226Z,-2.60
2023-02-26T00:06:57.845Z,-2.70
2023-02-26T00:09:26.479Z,-2.70
2023-02-26T00:11:53.880Z,-2.60
2023-02-26T00:14:21.522Z,-2.60
2023-02-26T00:16:53.934Z,-2.60
2023-02-26T00:19:21.077Z,-2.60
2023-02-26T00:21:48.371Z,-2.60
2023-02-26T00:24:15.416Z,-2.60
2023-02-26T00:26:42.447Z,-2.60
2023-02-26T00:29:09.563Z,-2.60
2023-02-26T00:31:36.774Z,-2.60
2023-02-26T00:34:03.900Z,-2.70
2023-02-26T00:36:44.367Z,-2.60
2023-02-26T00:39:23.425Z,-2.60
2023-02-26T00:41:50.599Z,-2.70
2023-02-26T00:44:17.800Z,-2.70
2023-02-26T00:46:50.009Z,-2.70
2023-02-26T00:49:35.749Z,-2.70
2023-02-26T00:52:04.404Z,-2.70
2023-02-26T00:54:31.864Z,-2.70
2023-02-26T00:56:59.650Z,-2.70
2023-02-26T00:59:26.688Z,-2.70
2023-02-26T01:01:53.797Z,-2.80
2023-02-26T01:04:22.526Z,-2.80
2023-02-26T01:06:58.723Z,-2.70
2023-02-26T01:09:28.564Z,-2.70
2023-02-26T01:11:56.482Z,-2.80
2023-02-26T01:14:24.174Z,-2.80
2023-02-26T01:17:03.555Z,-2.80
2023-02-26T01:19:37.596Z,-2.80
2023-02-26T01:22:15.046Z,-2.70
2023-02-26T01:24:42.940Z,-2.80
2023-02-26T01:27:10.028Z,-2.80
2023-02-26T01:29:37.117Z,-2.70
2023-02-26T01:32:12.286Z,-2.70
2023-02-26T01:34:51.647Z,-2.80
2023-02-26T01:37:25.060Z,-2.80
2023-02-26T01:39:52.099Z,-2.80
2023-02-26T01:42:23.116Z,-2.80
2023-02-26T01:45:08.906Z,-2.70
2023-02-26T01:47:54.260Z,-2.80
2023-02-26T01:50:22.926Z,-2.80
2023-02-26T01:52:49.895Z,-2.80
2023-02-26T01:55:19.505Z,-2.80
2023-02-26T01:57:47.145Z,-2.80
2023-02-26T02:00:15.936Z,-2.80
2023-02-26T02:02:43.010Z,-2.80
2023-02-26T02:05:14.112Z,-2.80
2023-02-26T02:07:41.111Z,-2.90
2023-02-26T02:10:08.322Z,-2.90
2023-02-26T02:12:38.476Z,-2.90
2023-02-26T02:15:20.613Z,-2.90
2023-02-26T02:18:06.325Z,-3.00
2023-02-26T02:20:33.278Z,-3.00
2023-02-26T02:23:00.306Z,-3.00
2023-02-26T02:25:48.650Z,-3.10
2023-02-26T02:28:24.522Z,-3.10
2023-02-26T02:30:57.139Z,-3.20
2023-02-26T02:33:28.867Z,-3.20
2023-02-26T02:36:05.315Z,-3.20
2023-02-26T02:38:39.848Z,-3.20
2023-02-26T02:41:12.697Z,-3.30
2023-02-26T02:43:41.710Z,-3.30
2023-02-26T02:46:11.741Z,-3.30
2023-02-26T02:48:43.874Z,-3.40
2023-02-26T02:51:13.785Z,-3.40
2023-02-26T02:53:44.342Z,-3.40
2023-02-26T02:56:15.958Z,-3.40
2023-02-26T02:58:47.277Z,-3.40
2023-02-26T03:01:15.817Z,-3.40
2023-02-26T03:03:51.893Z,-3.40
2023-02-26T03:06:18.890Z,-3.50
2023-02-26T03:08:47.775Z,-3.40
2023-02-26T03:11:15.121Z,-3.50
2023-02-26T03:13:42.151Z,-3.50
2023-02-26T03:16:18.400Z,-3.50
2023-02-26T03:18:57.960Z,-3.60
2023-02-26T03:21:47.475Z,-3.60
2023-02-26T03:24:32.935Z,-3.60
2023-02-26T03:27:03.606Z,-3.60
2023-02-26T03:29:44.760Z,-3.60
2023-02-26T03:32:15.668Z,-3.60
2023-02-26T03:34:55.033Z,-3.60
2023-02-26T03:37:34.215Z,-3.70
2023-02-26T03:40:05.670Z,-3.60
2023-02-26T03:42:38.357Z,-3.70
2023-02-26T03:45:07.816Z,-3.70
2023-02-26T03:47:35.442Z,-3.80
2023-02-26T03:50:13.868Z,-3.80
2023-02-26T03:52:42.096Z,-3.80
2023-02-26T03:55:15.538Z,-3.90
2023-02-26T03:57:42.837Z,-3.90
2023-02-26T04:00:10.643Z,-3.90
2023-02-26T04:02:41.201Z,-3.90
2023-02-26T04:05:11.061Z,-4.00
2023-02-26T04:07:39.331Z,-4.00
2023-02-26T04:10:06.808Z,-4.00
2023-02-26T04:12:33.885Z,-4.10
2023-02-26T04:15:00.931Z,-4.10
2023-02-26T04:17:29.640Z,-4.10
2023-02-26T04:19:57.350Z,-4.10
2023-02-26T04:22:24.296Z,-4.10
2023-02-26T04:24:51.388Z,-4.10
2023-02-26T04:27:18.424Z,-4.10
2023-02-26T04:29:45.439Z,-4.10
2023-02-26T04:32:12.565Z,-4.10
2023-02-26T04:34:39.647Z,-4.10
2023-02-26T04:37:06.649Z,-4.20
2023-02-26T04:39:33.656Z,-4.20
2023-02-26T04:42:00.653Z,-4.30
2023-02-26T04:44:27.618Z,-4.30
2023-02-26T04:46:54.655Z,-4.30
2023-02-26T04:49:21.592Z,-4.30
2023-02-26T04:51:48.591Z,-4.30
2023-02-26T04:54:15.982Z,-4.30
2023-02-26T04:56:43.176Z,-4.30
2023-02-26T04:59:10.184Z,-4.30
2023-02-26T05:01:37.343Z,-4.30
2023-02-26T05:04:04.361Z,-4.30
2023-02-26T05:06:31.296Z,-4.30
2023-02-26T05:08:58.348Z,-4.30
2023-02-26T05:11:25.307Z,-4.30
2023-02-26T05:13:52.333Z,-4.30
2023-02-26T05:16:19.472Z,-4.30
2023-02-26T05:18:46.688Z,-4.20
2023-02-26T05:21:13.800Z,-4.30
2023-02-26T05:23:40.819Z,-4.30
2023-02-26T05:26:07.903Z,-4.30
2023-02-26T05:28:36.761Z,-4.40
2023-02-26T05:31:04.042Z,-4.40
2023-02-26T05:33:31.187Z,-4.30
2023-02-26T05:35:58.185Z,-4.40
2023-02-26T05:38:25.258Z,-4.40
2023-02-26T05:40:56.010Z,-4.40
2023-02-26T05:43:22.964Z,-4.40
2023-02-26T05:45:50.607Z,-4.40
2023-02-26T05:48:17.624Z,-4.40
2023-02-26T05:50:44.962Z,-4.40
2023-02-26T05:53:12.049Z,-4.40
2023-02-26T05:55:39.021Z,-4.40
2023-02-26T05:58:05.992Z,-4.40
2023-02-26T06:00:33.590Z,-4.40
2023-02-26T06:03:00.646Z,-4.50
2023-02-26T06:05:27.735Z,-4.50
2023-02-26T06:07:54.698Z,-4.50
2023-02-26T06:10:21.704Z,-4.50
2023-02-26T06:12:48.641Z,-4.50
2023-02-26T06:15:15.718Z,-4.50
2023-02-26T06:17:42.640Z,-4.40
2023-02-26T06:20:09.926Z,-4.50
2023-02-26T06:22:36.989Z,-4.40
2023-02-26T06:25:04.011Z,-4.40
2023-02-26T06:27:31.085Z,-4.40
2023-02-26T06:29:58.209Z,-4.40
2023-02-26T06:32:25.276Z,-4.40
2023-02-26T06:34:52.360Z,-4.40
2023-02-26T06:37:19.458Z,-4.30
2023-02-26T06:39:46.534Z,-4.30
2023-02-26T06:42:13.507Z,-4.30
2023-02-26T06:44:40.593Z,-4.30
2023-02-26T06:47:08.144Z,-4.30
2023-02-26T06:49:35.235Z,-4.30
2023-02-26T06:52:02.365Z,-4.20
2023-02-26T06:54:29.323Z,-4.30
2023-02-26T06:56:57.951Z,-4.30
2023-02-26T06:59:25.181Z,-4.30
2023-02-26T07:01:52.154Z,-4.30
2023-02-26T07:04:20.684Z,-4.40
2023-02-26T07:06:48.421Z,-4.30
2023-02-26T07:09:15.434Z,-4.20
2023-02-26T07:11:42.504Z,-4.30
2023-02-26T07:14:09.664Z,-4.20
2023-02-26T07:16:36.760Z,-4.20
2023-02-26T07:19:03.760Z,-4.10
2023-02-26T07:21:30.810Z,-4.10
2023-02-26T07:23:57.849Z,-4.00
2023-02-26T07:26:25.058Z,-3.90
2023-02-26T07:28:52.240Z,-3.90
2023-02-26T07:31:19.291Z,-4.00
2023-02-26T07:33:46.256Z,-3.80
2023-02-26T07:36:13.290Z,-3.80
2023-02-26T07:38:40.282Z,-3.60
2023-02-26T07:41:08.092Z,-3.60
2023-02-26T07:43:36.031Z,-3.70
2023-02-26T07:46:03.545Z,-3.60
2023-02-26T07:48:30.629Z,-3.60
2023-02-26T07:50:57.686Z,-3.60
2023-02-26T07:53:24.679Z,-3.60
2023-02-26T07:55:51.598Z,-3.40
2023-02-26T07:58:18.821Z,-3.40
2023-02-26T08:00:45.820Z,-3.40
2023-02-26T08:03:12.882Z,-3.30
2023-02-26T08:05:39.951Z,-3.40
2023-02-26T08:08:07.021Z,-3.40
2023-02-26T08:10:33.942Z,-3.40
2023-02-26T08:13:00.967Z,-3.20
2023-02-26T08:15:28.064Z,-3.30
2023-02-26T08:17:55.012Z,-3.10
2023-02-26T08:20:22.038Z,-3.10
2023-02-26T08:22:50.575Z,-3.10
2023-02-26T08:25:17.551Z,-3.00
2023-02-26T08:27:44.606Z,-3.20
2023-02-26T08:30:11.916Z,-3.20
2023-02-26T08:32:40.214Z,-3.40
2023-02-26T08:35:07.448Z,-3.30
2023-02-26T08:37:34.557Z,-3.00
2023-02-26T08:40:01.654Z,-2.90
2023-02-26T08:42:28.721Z,-2.90
2023-02-26T08:44:55.706Z,-2.70
2023-02-26T08:47:28.713Z,-2.60
2023-02-26T08:49:56.553Z,-2.10
2023-02-26T08:52:23.607Z,-2.20
2023-02-26T08:54:50.728Z,-2.00
2023-02-26T08:57:18.062Z,-1.80
2023-02-26T08:59:45.217Z,-1.70
2023-02-26T09:02:12.880Z,-2.00
2023-02-26T09:04:40.022Z,-1.90
2023-02-26T09:07:07.142Z,-1.80
2023-02-26T09:09:34.257Z,-2.00
2023-02-26T09:12:01.394Z,-2.20
2023-02-26T09:14:28.491Z,-2.50
2023-02-26T09:16:55.527Z,-2.30
2023-02-26T09:19:22.636Z,-2.20
2023-02-26T09:21:49.716Z,-2.20
2023-02-26T09:24:16.683Z,-2.30
2023-02-26T09:26:43.720Z,-2.20
2023-02-26T09:29:11.705Z,-2.40
2023-02-26T09:31:38.775Z,-2.40
2023-02-26T09:34:06.112Z,-2.30
2023-02-26T09:36:33.150Z,-2.30
2023-02-26T09:39:01.027Z,-2.50
2023-02-26T09:41:33.363Z,-2.30
2023-02-26T09:44:06.119Z,-2.10
2023-02-26T09:46:36.116Z,-1.90
2023-02-26T09:49:21.580Z,-2.00
2023-02-26T09:51:51.421Z,-2.00
2023-02-26T09:54:30.229Z,-1.80
2023-02-26T09:56:59.206Z,-1.70
2023-02-26T09:59:27.987Z,-1.80
2023-02-26T10:02:08.053Z,-1.70
2023-02-26T10:04:41.289Z,-1.90
2023-02-26T10:07:27.312Z,-1.60
2023-02-26T10:10:09.248Z,-1.50
2023-02-26T10:12:37.270Z,-1.20
2023-02-26T10:15:15.857Z,-0.90
2023-02-26T10:18:01.375Z,-0.80
2023-02-26T10:20:36.341Z,-0.80
2023-02-26T10:23:06.878Z,-0.90
2023-02-26T10:25:37.618Z,-1.30
2023-02-26T10:28:24.896Z,-1.50
2023-02-26T10:30:58.608Z,-1.40
2023-02-26T10:33:29.778Z,-1.90
2023-02-26T10:35:59.415Z,-1.70
2023-02-26T10:38:27.834Z,-1.80
2023-02-26T10:40:57.663Z,-1.70
2023-02-26T10:43:30.598Z,-1.80
2023-02-26T10:46:10.347Z,-1.40
2023-02-26T10:48:43.222Z,-1.40
2023-02-26T10:51:23.334Z,-1.50
2023-02-26T10:53:56.305Z,-1.50
2023-02-26T10:56:33.357Z,-1.30
2023-02-26T10:59:00.680Z,-1.40
2023-02-26T11:01:29.606Z,-1.30
2023-02-26T11:03:58.492Z,-1.10
2023-02-26T11:06:28.878Z,-1.20
2023-02-26T11:08:56.445Z,-1.30
2023-02-26T11:11:42.233Z,-1.30
2023-02-26T11:14:09.935Z,-1.10
2023-02-26T11:16:41.611Z,-0.90
2023-02-26T11:19:09.376Z,-0.70
2023-02-26T11:21:40.077Z,-0.20
2023-02-26T11:24:13.492Z,0.10
2023-02-26T11:26:43.394Z,0.10
2023-02-26T11:29:15.435Z,-0.20
2023-02-26T11:31:43.657Z,0.10
2023-02-26T11:34:12.225Z,0.70
2023-02-26T11:36:41.393Z,0.30
2023-02-26T11:39:12.892Z,0.40
2023-02-26T11:41:40.414Z,0.20
2023-02-26T11:44:09.346Z,-0.10
2023-02-26T11:46:40.858Z,-0.40
2023-02-26T11:49:10.228Z,-0.10
2023-02-26T11:51:37.317Z,-0.10
2023-02-26T11:54:04.482Z,-0.50
2023-02-26T11:56:31.477Z,-0.40
2023-02-26T11:59:00.917Z,0.40
2023-02-26T12:01:29.642Z,1.20
2023-02-26T12:03:59.237Z,1.40
2023-02-26T12:06:26.375Z,1.60
2023-02-26T12:08:54.331Z,1.30
2023-02-26T12:11:30.733Z,1.10
2023-02-26T12:14:22.379Z,1.60
2023-02-26T12:17:06.068Z,0.90
2023-02-26T12:19:38.946Z,0.70
2023-02-26T12:22:38.467Z,0.70
2023-02-26T12:25:08.251Z,0.70
2023-02-26T12:27:35.175Z,0.20
2023-02-26T12:30:05.212Z,0.00
2023-02-26T12:32:40.757Z,0.00
2023-02-26T12:35:12.614Z,-0.30
2023-02-26T12:37:39.770Z,-0.40
2023-02-26T12:40:15.859Z,-0.40
2023-02-26T12:43:01.625Z,-0.50
2023-02-26T12:45:37.709Z,-0.80
2023-02-26T12:48:04.661Z,-0.80
2023-02-26T12:50:50.614Z,-0.90
2023-02-26T12:53:20.692Z,-1.10
2023-02-26T12:55:50.684Z,-1.00
2023-02-26T12:58:36.492Z,-0.80
2023-02-26T13:01:03.687Z,-0.50
2023-02-26T13:03:39.734Z,-0.20
2023-02-26T13:06:22.032Z,-0.20
2023-02-26T13:08:55.066Z,-0.20
2023-02-26T13:11:29.634Z,-0.10
2023-02-26T13:14:11.080Z,0.00
2023-02-26T13:16:48.134Z,0.00
2023-02-26T13:19:18.277Z,0.40
2023-02-26T13:21:59.753Z,0.40
2023-02-26T13:24:42.149Z,0.70
2023-02-26T13:27:10.110Z,0.70
2023-02-26T13:29:40.365Z,0.10
2023-02-26T13:32:27.673Z,-0.20
2023-02-26T13:34:54.705Z,-0.50
2023-02-26T13:37:21.982Z,-0.80
2023-02-26T13:39:55.963Z,-1.10
2023-02-26T13:42:41.122Z,-1.30
2023-02-26T13:45:18.713Z,-1.40
2023-02-26T13:47:54.901Z,-1.50
2023-02-26T13:50:25.171Z,-1.60
2023-02-26T13:52:54.496Z,-1.70
2023-02-26T13:55:39.991Z,-1.80
2023-02-26T13:58:16.998Z,-2.00
2023-02-26T14:00:48.590Z,-2.10
2023-02-26T14:03:15.672Z,-2.20
2023-02-26T14:05:46.550Z,-2.10
2023-02-26T14:08:42.986Z,-2.10
2023-02-26T14:11:16.100Z,-1.90
2023-02-26T14:13:44.812Z,-1.80
2023-02-26T14:16:11.887Z,-1.80
2023-02-26T14:18:50.481Z,-1.60
2023-02-26T14:21:32.525Z,-1.50
2023-02-26T14:24:01.664Z,-1.60
2023-02-26T14:26:30.893Z,-1.60
2023-02-26T14:29:06.817Z,-1.90
2023-02-26T14:31:52.788Z,-1.90
2023-02-26T14:34:31.605Z,-1.90
2023-02-26T14:36:59.899Z,-1.90
2023-02-26T14:39:29.789Z,-1.90
2023-02-26T14:42:00.395Z,-2.00
2023-02-26T14:44:34.360Z,-2.10
2023-02-26T14:47:01.638Z,-2.20
2023-02-26T14:49:32.384Z,-2.20
2023-02-26T14:52:05.107Z,-2.20
2023-02-26T14:54:32.111Z,-2.40
2023-02-26T14:57:04.278Z,-2.40
2023-02-26T14:59:35.206Z,-2.50
2023-02-26T15:02:18.797Z,-2.50
2023-02-26T15:05:11.258Z,-2.50
2023-02-26T15:07:50.398Z,-2.60
2023-02-26T15:10:26.766Z,-2.70
2023-02-26T15:12:54.725Z,-2.80
2023-02-26T15:15:30.561Z,-2.70
2023-02-26T15:18:04.185Z,-2.70
2023-02-26T15:20:31.366Z,-2.70
2023-02-26T15:23:01.681Z,-2.70
2023-02-26T15:25:34.237Z,-2.70
2023-02-26T15:28:02.142Z,-2.80
2023-02-26T15:30:30.965Z,-2.80
2023-02-26T15:33:03.651Z,-2.80
2023-02-26T15:35:31.941Z,-2.90
2023-02-26T15:38:01.355Z,-2.90
2023-02-26T15:40:30.770Z,-2.90
2023-02-26T15:42:59.616Z,-3.00
2023-02-26T15:45:27.908Z,-3.00
2023-02-26T15:47:56.560Z,-3.00
2023-02-26T15:50:29.290Z,-3.00
2023-02-26T15:52:58.815Z,-3.10
2023-02-26T15:55:26.306Z,-3.00
2023-02-26T15:57:54.750Z,-3.00
2023-02-26T16:00:26.015Z,-3.10
2023-02-26T16:02:59.710Z,-3.10
2023-02-26T16:05:27.867Z,-3.10
2023-02-26T16:07:55.351Z,-3.10
2023-02-26T16:10:34.747Z,-3.20
2023-02-26T16:13:02.215Z,-3.10
2023-02-26T16:15:32.766Z,-3.10
2023-02-26T16:18:00.781Z,-3.10
2023-02-26T16:20:29.150Z,-3.20
2023-02-26T16:23:01.290Z,-3.20
2023-02-26T16:25:31.635Z,-3.20
2023-02-26T16:28:01.050Z,-3.20
2023-02-26T16:30:36.157Z,-3.20
2023-02-26T16:33:04.042Z,-3.20
2023-02-26T16:35:38.851Z,-3.20
2023-02-26T16:38:12.307Z,-3.30
2023-02-26T16:40:41.172Z,-3.30
2023-02-26T16:43:23.374Z,-3.30
2023-02-26T16:45:51.272Z,-3.30
2023-02-26T16:48:23.486Z,-3.30
2023-02-26T16:50:56.300Z,-3.30
2023-02-26T16:53:24.818Z,-3.30
2023-02-26T16:55:54.775Z,-3.40
2023-02-26T16:58:24.761Z,-3.40
2023-02-26T17:00:54.241Z,-3.30
2023-02-26T17:03:22.657Z,-3.40
2023-02-26T17:06:01.055Z,-3.40
2023-02-26T17:08:31.819Z,-3.40
2023-02-26T17:11:02.940Z,-3.40
2023-02-26T17:13:32.051Z,-3.40
2023-02-26T17:16:00.235Z,-3.40
2023-02-26T17:18:27.595Z,-3.40
2023-02-26T17:20:55.018Z,-3.40
2023-02-26T17:23:24.572Z,-3.40
2023-02-26T17:25:54.941Z,-3.40
2023-02-26T17:28:36.917Z,-3.40
2023-02-26T17:31:04.530Z,-3.40
2023-02-26T17:33:31.543Z,-3.40
2023-02-26T17:36:03.130Z,-3.50
2023-02-26T17:38:30.695Z,-3.50
2023-02-26T17:40:58.558Z,-3.50
2023-02-26T17:43:25.637Z,-3.40
2023-02-26T17:45:53.503Z,-3.40
2023-02-26T17:48:20.692Z,-3.50
2023-02-26T17:50:50.276Z,-3.40
2023-02-26T17:53:18.060Z,-3.50
2023-02-26T17:55:46.105Z,-3.50
2023-02-26T17:58:15.760Z,-3.50
2023-02-26T18:00:43.946Z,-3.50
2023-02-26T18:03:11.389Z,-3.50
2023-02-26T18:05:39.480Z,-3.40
2023-02-26T18:08:08.006Z,-3.40
2023-02-26T18:10:35.010Z,-3.40
2023-02-26T18:13:03.643Z,-3.40
2023-02-26T18:15:30.776Z,-3.50
2023-02-26T18:17:59.008Z,-3.40
2023-02-26T18:20:27.501Z,-3.50
2023-02-26T18:22:54.608Z,-3.40
2023-02-26T18:25:22.160Z,-3.40
2023-02-26T18:27:54.718Z,-3.50
2023-02-26T18:30:23.907Z,-3.50
2023-02-26T18:32:51.007Z,-3.50
2023-02-26T18:35:18.310Z,-3.40
2023-02-26T18:37:45.567Z,-3.40
2023-02-26T18:40:14.780Z,-3.50
2023-02-26T18:42:41.970Z,-3.50
2023-02-26T18:45:11.571Z,-3.40
2023-02-26T18:47:39.019Z,-3.40
2023-02-26T18:50:07.513Z,-3.40
2023-02-26T18:52:34.711Z,-3.50
2023-02-26T18:55:03.260Z,-3.40
2023-02-26T18:57:30.621Z,-3.40
2023-02-26T18:59:57.677Z,-3.40
2023-02-26T19:02:24.963Z,-3.40
2023-02-26T19:04:52.807Z,-3.40
2023-02-26T19:07:20.064Z,-3.40
2023-02-26T19:09:47.115Z,-3.40
2023-02-26T19:12:20.624Z,-3.50
2023-02-26T19:14:47.960Z,-3.50
2023-02-26T19:17:16.752Z,-3.40
2023-02-26T19:19:43.972Z,-3.50
2023-02-26T19:22:11.776Z,-3.50
2023-02-26T19:24:38.860Z,-3.50
2023-02-26T19:27:05.972Z,-3.40
2023-02-26T19:29:34.152Z,-3.40
2023-02-26T19:32:02.168Z,-3.40
2023-02-26T19:34:29.569Z,-3.40
2023-02-26T19:36:56.641Z,-3.50
2023-02-26T19:39:23.708Z,-3.50
2023-02-26T19:41:53.674Z,-3.40
2023-02-26T19:44:21.551Z,-3.40
2023-02-26T19:46:49.124Z,-3.40
2023-02-26T19:49:16.715Z,-3.40
2023-02-26T19:51:43.699Z,-3.30
2023-02-26T19:54:11.040Z,-3.30
2023-02-26T19:56:38.183Z,-3.40
2023-02-26T19:59:05.111Z,-3.30
2023-02-26T20:01:32.254Z,-3.40
2023-02-26T20:03:59.564Z,-3.40
2023-02-26T20:06:26.798Z,-3.30
2023-02-26T20:08:53.884Z,-3.30
2023-02-26T20:11:21.503Z,-3.30
2023-02-26T20:13:48.559Z,-3.30
2023-02-26T20:16:16.521Z,-3.30
2023-02-26T20:18:45.970Z,-3.30
2023-02-26T20:21:13.221Z,-3.40
2023-02-26T20:23:40.857Z,-3.40
2023-02-26T20:26:11.048Z,-3.50
2023-02-26T20:28:38.667Z,-3.60
2023-02-26T20:31:06.181Z,-3.70
2023-02-26T20:33:34.053Z,-3.70
2023-02-26T20:36:01.124Z,-3.70
2023-02-26T20:38:28.562Z,-3.70
2023-02-26T20:40:56.865Z,-3.80
2023-02-26T20:43:25.234Z,-3.90
2023-02-26T20:45:52.537Z,-4.10
2023-02-26T20:48:19.694Z,-4.10
2023-02-26T20:50:46.687Z,-4.40
2023-02-26T20:53:13.809Z,-4.50
2023-02-26T20:55:40.899Z,-4.70
2023-02-26T20:58:07.989Z,-4.70
2023-02-26T21:00:34.992Z,-4.80
2023-02-26T21:03:02.089Z,-4.80
2023-02-26T21:05:29.148Z,-4.90
2023-02-26T21:07:56.116Z,-4.90
2023-02-26T21:10:23.180Z,-4.90
2023-02-26T21:12:51.863Z,-4.90
2023-02-26T21:15:19.108Z,-4.90
2023-02-26T21:17:46.340Z,-5.00
2023-02-26T21:20:16.077Z,-5.00
2023-02-26T21:22:43.214Z,-5.10
2023-02-26T21:25:10.335Z,-5.10
2023-02-26T21:27:37.616Z,-5.20
2023-02-26T21:30:06.245Z,-5.20
2023-02-26T21:32:33.441Z,-5.30
2023-02-26T21:35:00.411Z,-5.30
2023-02-26T21:37:27.709Z,-5.20
2023-02-26T21:39:55.223Z,-5.30
2023-02-26T21:42:22.744Z,-5.30
2023-02-26T21:44:49.784Z,-5.40
2023-02-26T21:47:17.083Z,-5.50
2023-02-26T21:49:44.185Z,-5.40
2023-02-26T21:52:11.977Z,-5.50
2023-02-26T21:54:39.236Z,-5.60
2023-02-26T21:57:06.329Z,-5.60
2023-02-26T21:59:33.785Z,-5.60
2023-02-26T22:02:01.022Z,-5.80
2023-02-26T22:04:28.170Z,-5.90
2023-02-26T22:06:55.271Z,-6.00
2023-02-26T22:09:23.219Z,-6.10
2023-02-26T22:11:50.361Z,-6.20
2023-02-26T22:14:17.452Z,-6.20
2023-02-26T22:16:44.590Z,-6.30
2023-02-26T22:19:11.673Z,-6.30
2023-02-26T22:21:38.739Z,-6.30
2023-02-26T22:24:06.420Z,-6.40
2023-02-26T22:26:33.462Z,-6.40
2023-02-26T22:29:00.979Z,-6.40
2023-02-26T22:31:28.969Z,-6.40
2023-02-26T22:33:57.513Z,-6.50
2023-02-26T22:36:25.135Z,-6.60
2023-02-26T22:38:52.343Z,-6.50
2023-02-26T22:41:19.348Z,-6.60
2023-02-26T22:43:46.236Z,-6.60
2023-02-26T22:46:13.450Z,-6.60
2023-02-26T22:48:40.466Z,-6.70
2023-02-26T22:51:07.493Z,-6.80
2023-02-26T22:53:35.921Z,-6.80
2023-02-26T22:56:02.884Z,-6.70
2023-02-26T22:58:29.882Z,-6.80
2023-02-26T23:01:02.983Z,-6.90
2023-02-26T23:03:30.068Z,-6.90
2023-02-26T23:05:57.547Z,-6.90
2023-02-26T23:08:25.938Z,-6.80
2023-02-26T23:11:00.427Z,-6.80
2023-02-26T23:13:28.007Z,-6.90
2023-02-26T23:15:55.136Z,-6.90
2023-02-26T23:18:22.148Z,-7.00
2023-02-26T23:20:50.137Z,-7.00
2023-02-26T23:23:17.120Z,-7.10
2023-02-26T23:25:44.445Z,-7.00
2023-02-26T23:28:12.180Z,-7.00
2023-02-26T23:30:39.452Z,-7.00
2023-02-26T23:33:07.495Z,-6.90
2023-02-26T23:35:35.275Z,-6.90
2023-02-26T23:38:02.794Z,-6.90
2023-02-26T23:40:29.972Z,-7.00
2023-02-26T23:42:57.131Z,-7.10
2023-02-26T23:45:24.360Z,-7.10
2023-02-26T23:47:51.631Z,-7.20
2023-02-26T23:50:18.810Z,-7.20
2023-02-26T23:52:45.776Z,-7.30
2023-02-26T23:55:12.798Z,-7.30
2023-02-26T23:57:39.927Z,-7.40
